Folla — LLPD — position and weather

sailwx.info

Track history (hours):
 
Tides and Currents Weather Stations Pressure Air Temp Water Temp Dewpoint Dewpoint Depression Visibility Wind Speed Wind Dir Waves Ship Positions

Folla

Last reported at 2015-May-27 08:33 UTC. Time now 2015-May-27 09:57 UTC.
Position N 64°52' E 011°14'.

Length 52 m; draft 5 m.

Type: Cargo ship. MMSI: 258253000.

Date/timePositionNaut miles runAvg speedWind from/ knotsBaromVisibWave heightAir tempDewpointWater temp
2015-May-27 08:33N 64°52' E 011°14'0 0.0
2015-May-27 07:33N 64°52' E 011°14'0 0.0
2015-May-27 06:33N 64°52' E 011°14'0 0.0
2015-May-27 05:33N 64°52' E 011°14'0 0.0
2015-May-27 04:33N 64°52' E 011°14'0 0.0
2015-May-27 03:33N 64°52' E 011°14'0 0.0
2015-May-27 02:34N 64°52' E 011°14'0 0.0
2015-May-27 01:34N 64°52' E 011°14'0 0.0
2015-May-27 00:33N 64°52' E 011°14'0 0.0
2015-May-26 23:34N 64°52' E 011°14'0 0.0
2015-May-26 22:33N 64°52' E 011°14'0 0.0
2015-May-26 21:33N 64°52' E 011°14'0 0.0
2015-May-26 20:33N 64°52' E 011°14'0 0.0
2015-May-26 19:33N 64°52' E 011°14'0 0.0
2015-May-26 18:33N 64°52' E 011°14'0 0.0
2015-May-26 17:33N 64°52' E 011°14'0 0.0
2015-May-26 16:33N 64°52' E 011°14'0 0.0
2015-May-26 15:34N 64°52' E 011°14'0 0.0
2015-May-26 14:33N 64°52' E 011°14'7 6.7
2015-May-26 13:33N 64°56' E 011°26'1110.6
2015-May-26 12:33N 65°03' E 011°44'1111.0
2015-May-26 11:33N 65°13' E 011°54'5710.9
2015-May-26 06:17N 66°07' E 012°40'810.9
2015-May-26 05:32N 66°16' E 012°39'7 7.1
2015-May-26 04:33N 66°22' E 012°35'5 4.8
2015-May-26 03:33N 66°24' E 012°47'25 8.1
2015-May-26 00:28N 66°46' E 013°15'12 5.2
2015-May-25 22:05N 66°57' E 013°29'611.4
2015-May-25 21:33N 67°01' E 013°42'1111.2
2015-May-25 20:32N 67°09' E 014°02'1111.3
2015-May-25 19:34N 67°17' E 014°22'1 0.9
2015-May-25 18:33N 67°18' E 014°24'0 0.1
2015-May-25 17:33N 67°17' E 014°24'8 8.0
2015-May-25 16:34N 67°25' E 014°27'1711.4
2015-May-25 15:06N 67°42' E 014°31'146 6.8
2015-May-24 17:33N 69°34' E 018°47'7 6.8
2015-May-24 16:33N 69°40' E 018°58'1 0.9
2015-May-24 15:33N 69°41' E 018°59'130 6.2
2015-May-23 18:30N 68°13' E 014°33'1110.9
2015-May-23 17:31N 68°07' E 014°08'1210.9
2015-May-23 16:25N 68°04' E 013°37'39 6.6
2015-May-23 10:30N 67°25' E 013°29'1210.8
2015-May-23 09:25N 67°14' E 013°28'1011.1
2015-May-23 08:31N 67°04' E 013°28'40 8.0
2015-May-23 03:31N 66°25' E 012°59'89 9.7
2015-May-22 18:17N 65°02' E 011°42'810.8
2015-May-22 17:33N 64°57' E 011°28'8 8.0
2015-May-22 16:33N 64°52' E 011°14'0 0.0
2015-May-22 15:33N 64°52' E 011°14'0 0.0
2015-May-22 14:33N 64°52' E 011°14'0 0.0
2015-May-22 13:33N 64°52' E 011°14'0 0.0
2015-May-22 12:33N 64°52' E 011°14'0 0.0
2015-May-22 11:33N 64°52' E 011°14'0 0.0
2015-May-22 10:33N 64°52' E 011°14'0 0.0
2015-May-22 09:33N 64°52' E 011°14'0 0.0
2015-May-22 08:33N 64°52' E 011°14'0 0.0
2015-May-22 07:33N 64°52' E 011°14'0 0.0
2015-May-22 06:33N 64°52' E 011°14'0 0.0
2015-May-22 05:33N 64°52' E 011°14'0 0.0
2015-May-22 04:33N 64°52' E 011°14'0 0.0
2015-May-22 03:33N 64°52' E 011°14'0 0.0
2015-May-22 02:33N 64°52' E 011°14'0 0.0
2015-May-22 01:33N 64°52' E 011°14'0 0.0
2015-May-22 00:33N 64°52' E 011°14'0 0.0
2015-May-21 23:33N 64°52' E 011°14'0 0.0
2015-May-21 22:33N 64°52' E 011°14'0 0.0
2015-May-21 21:33N 64°52' E 011°14'0 0.0
2015-May-21 20:33N 64°52' E 011°14'0 0.0
2015-May-21 19:33N 64°52' E 011°14'0 0.0
2015-May-21 18:33N 64°52' E 011°14'0 0.3
2015-May-21 17:33N 64°52' E 011°15'8 7.8
2015-May-21 16:33N 64°45' E 011°06'0 0.0
2015-May-20 15:09N 64°45' E 011°06'6 9.7
2015-May-20 14:33N 64°50' E 011°11'2 1.7
2015-May-20 13:33N 64°52' E 011°14'0 0.0
2015-May-20 12:33N 64°52' E 011°14'0 0.0
2015-May-20 11:33N 64°52' E 011°14'0 0.0
2015-May-20 10:33N 64°52' E 011°14'0 0.0
2015-May-20 09:33N 64°52' E 011°14'0 0.0
2015-May-20 08:33N 64°52' E 011°14'0 0.0
2015-May-20 07:33N 64°52' E 011°14'0 0.0
2015-May-20 06:33N 64°52' E 011°14'0 0.0
2015-May-20 05:33N 64°52' E 011°14'0 0.0
2015-May-20 04:33N 64°52' E 011°14'0 0.0
2015-May-20 03:33N 64°52' E 011°14'0 0.0
2015-May-20 02:33N 64°52' E 011°14'0 0.0
2015-May-20 01:33N 64°52' E 011°14'0 0.0
2015-May-20 00:33N 64°52' E 011°14'0 0.0
2015-May-19 23:33N 64°52' E 011°14'0 0.0
2015-May-19 22:33N 64°52' E 011°14'0 0.0
2015-May-19 21:33N 64°52' E 011°14'0 0.0
2015-May-19 20:33N 64°52' E 011°14'0 0.0
2015-May-19 19:33N 64°52' E 011°14'0 0.0
2015-May-19 18:33N 64°52' E 011°14'0 0.0
2015-May-19 17:33N 64°52' E 011°14'0 0.0
2015-May-19 16:33N 64°52' E 011°14'0 0.0
2015-May-19 15:33N 64°52' E 011°14'0 0.0
2015-May-19 14:33N 64°52' E 011°14'0 0.0
2015-May-19 13:33N 64°52' E 011°14'0 0.0
2015-May-19 12:33N 64°52' E 011°14'0 0.0
2015-May-19 11:33N 64°52' E 011°14'0 0.0
2015-May-19 10:33N 64°52' E 011°14'0 0.0
2015-May-19 09:33N 64°52' E 011°14'0 0.0
2015-May-19 08:33N 64°52' E 011°14'0 0.0
2015-May-19 07:33N 64°52' E 011°14'0 0.0
2015-May-19 06:33N 64°52' E 011°14'0 0.0
2015-May-19 05:33N 64°52' E 011°14'0 0.0
2015-May-19 04:33N 64°52' E 011°14'0 0.0
2015-May-19 03:33N 64°52' E 011°14'0 0.0
2015-May-19 02:33N 64°52' E 011°14'0 0.0
2015-May-19 01:33N 64°52' E 011°14'0 0.0
2015-May-19 00:33N 64°52' E 011°14'0 0.0
2015-May-18 23:33N 64°52' E 011°14'0 0.0
2015-May-18 22:33N 64°52' E 011°14'0 0.0
2015-May-18 21:33N 64°52' E 011°14'0 0.0
2015-May-18 20:33N 64°52' E 011°14'0 0.0
2015-May-18 19:33N 64°52' E 011°14'0 0.0
2015-May-18 18:33N 64°52' E 011°14'0 0.0
2015-May-18 17:33N 64°52' E 011°14'0 0.0
2015-May-18 16:33N 64°52' E 011°14'0 0.0
2015-May-18 15:33N 64°52' E 011°14'0 0.0
2015-May-18 14:33N 64°52' E 011°14'0 0.0
2015-May-18 13:33N 64°52' E 011°14'0 0.0
2015-May-18 12:33N 64°52' E 011°14'0 0.0
2015-May-18 11:33N 64°52' E 011°14'0 0.0
2015-May-18 10:33N 64°52' E 011°14'0 0.0
2015-May-18 09:33N 64°52' E 011°14'0 0.0
2015-May-18 08:33N 64°52' E 011°14'1 1.0
2015-May-18 07:33N 64°52' E 011°16'1 1.0
2015-May-18 06:33N 64°52' E 011°17'1111.1
2015-May-18 05:33N 64°60' E 011°37'1110.8
2015-May-18 04:33N 65°09' E 011°50'1111.1
2015-May-18 03:33N 65°19' E 012°00'5410.7
2015-May-17 22:29N 66°11' E 012°39'910.2
2015-May-17 21:34N 66°18' E 012°22'9 8.7
2015-May-17 20:33N 66°26' E 012°23'7 7.4
2015-May-17 19:33N 66°30' E 012°07'1210.6
2015-May-17 18:27N 66°38' E 012°30'31 7.8
2015-May-17 14:32N 66°58' E 013°30'1111.4
2015-May-17 13:33N 67°04' E 013°53'7 6.5
2015-May-17 12:33N 67°09' E 014°02'1111.2
2015-May-17 11:33N 67°19' E 014°18'1111.0
2015-May-17 10:33N 67°29' E 014°28'1311.0
2015-May-17 09:22N 67°42' E 014°31'  
Track history (hours):
 
Tides and Currents Weather Stations Pressure Air Temp Water Temp Dewpoint Dewpoint Depression Visibility Wind Speed Wind Dir Waves Ship Positions

Folla

Last reported at 2015-May-27 08:33 UTC. Time now 2015-May-27 09:57 UTC.
Position N 64°52' E 011°14'.

Length 52 m; draft 5 m.

Type: Cargo ship. MMSI: 258253000.

Date/timePositionNaut miles runAvg speedWind from/ knotsBaromVisibWave heightAir tempDewpointWater temp
2015-May-27 08:33N 64°52' E 011°14'0 0.0
2015-May-27 07:33N 64°52' E 011°14'0 0.0
2015-May-27 06:33N 64°52' E 011°14'0 0.0
2015-May-27 05:33N 64°52' E 011°14'0 0.0
2015-May-27 04:33N 64°52' E 011°14'0 0.0
2015-May-27 03:33N 64°52' E 011°14'0 0.0
2015-May-27 02:34N 64°52' E 011°14'0 0.0
2015-May-27 01:34N 64°52' E 011°14'0 0.0
2015-May-27 00:33N 64°52' E 011°14'0 0.0
2015-May-26 23:34N 64°52' E 011°14'0 0.0
2015-May-26 22:33N 64°52' E 011°14'0 0.0
2015-May-26 21:33N 64°52' E 011°14'0 0.0
2015-May-26 20:33N 64°52' E 011°14'0 0.0
2015-May-26 19:33N 64°52' E 011°14'0 0.0
2015-May-26 18:33N 64°52' E 011°14'0 0.0
2015-May-26 17:33N 64°52' E 011°14'0 0.0
2015-May-26 16:33N 64°52' E 011°14'0 0.0
2015-May-26 15:34N 64°52' E 011°14'0 0.0
2015-May-26 14:33N 64°52' E 011°14'7 6.7
2015-May-26 13:33N 64°56' E 011°26'1110.6
2015-May-26 12:33N 65°03' E 011°44'1111.0
2015-May-26 11:33N 65°13' E 011°54'5710.9
2015-May-26 06:17N 66°07' E 012°40'810.9
2015-May-26 05:32N 66°16' E 012°39'7 7.1
2015-May-26 04:33N 66°22' E 012°35'5 4.8
2015-May-26 03:33N 66°24' E 012°47'25 8.1
2015-May-26 00:28N 66°46' E 013°15'12 5.2
2015-May-25 22:05N 66°57' E 013°29'611.4
2015-May-25 21:33N 67°01' E 013°42'1111.2
2015-May-25 20:32N 67°09' E 014°02'1111.3
2015-May-25 19:34N 67°17' E 014°22'1 0.9
2015-May-25 18:33N 67°18' E 014°24'0 0.1
2015-May-25 17:33N 67°17' E 014°24'8 8.0
2015-May-25 16:34N 67°25' E 014°27'1711.4
2015-May-25 15:06N 67°42' E 014°31'146 6.8
2015-May-24 17:33N 69°34' E 018°47'7 6.8
2015-May-24 16:33N 69°40' E 018°58'1 0.9
2015-May-24 15:33N 69°41' E 018°59'130 6.2
2015-May-23 18:30N 68°13' E 014°33'1110.9
2015-May-23 17:31N 68°07' E 014°08'1210.9
2015-May-23 16:25N 68°04' E 013°37'39 6.6
2015-May-23 10:30N 67°25' E 013°29'1210.8
2015-May-23 09:25N 67°14' E 013°28'1011.1
2015-May-23 08:31N 67°04' E 013°28'40 8.0
2015-May-23 03:31N 66°25' E 012°59'89 9.7
2015-May-22 18:17N 65°02' E 011°42'810.8
2015-May-22 17:33N 64°57' E 011°28'8 8.0
2015-May-22 16:33N 64°52' E 011°14'0 0.0
2015-May-22 15:33N 64°52' E 011°14'0 0.0
2015-May-22 14:33N 64°52' E 011°14'0 0.0
2015-May-22 13:33N 64°52' E 011°14'0 0.0
2015-May-22 12:33N 64°52' E 011°14'0 0.0
2015-May-22 11:33N 64°52' E 011°14'0 0.0
2015-May-22 10:33N 64°52' E 011°14'0 0.0
2015-May-22 09:33N 64°52' E 011°14'0 0.0
2015-May-22 08:33N 64°52' E 011°14'0 0.0
2015-May-22 07:33N 64°52' E 011°14'0 0.0
2015-May-22 06:33N 64°52' E 011°14'0 0.0
2015-May-22 05:33N 64°52' E 011°14'0 0.0
2015-May-22 04:33N 64°52' E 011°14'0 0.0
2015-May-22 03:33N 64°52' E 011°14'0 0.0
2015-May-22 02:33N 64°52' E 011°14'0 0.0
2015-May-22 01:33N 64°52' E 011°14'0 0.0
2015-May-22 00:33N 64°52' E 011°14'0 0.0
2015-May-21 23:33N 64°52' E 011°14'0 0.0
2015-May-21 22:33N 64°52' E 011°14'0 0.0
2015-May-21 21:33N 64°52' E 011°14'0 0.0
2015-May-21 20:33N 64°52' E 011°14'0 0.0
2015-May-21 19:33N 64°52' E 011°14'0 0.0
2015-May-21 18:33N 64°52' E 011°14'0 0.3
2015-May-21 17:33N 64°52' E 011°15'8 7.8
2015-May-21 16:33N 64°45' E 011°06'0 0.0
2015-May-20 15:09N 64°45' E 011°06'6 9.7
2015-May-20 14:33N 64°50' E 011°11'2 1.7
2015-May-20 13:33N 64°52' E 011°14'0 0.0
2015-May-20 12:33N 64°52' E 011°14'0 0.0
2015-May-20 11:33N 64°52' E 011°14'0 0.0
2015-May-20 10:33N 64°52' E 011°14'0 0.0
2015-May-20 09:33N 64°52' E 011°14'0 0.0
2015-May-20 08:33N 64°52' E 011°14'0 0.0
2015-May-20 07:33N 64°52' E 011°14'0 0.0
2015-May-20 06:33N 64°52' E 011°14'0 0.0
2015-May-20 05:33N 64°52' E 011°14'0 0.0
2015-May-20 04:33N 64°52' E 011°14'0 0.0
2015-May-20 03:33N 64°52' E 011°14'0 0.0
2015-May-20 02:33N 64°52' E 011°14'0 0.0
2015-May-20 01:33N 64°52' E 011°14'0 0.0
2015-May-20 00:33N 64°52' E 011°14'0 0.0
2015-May-19 23:33N 64°52' E 011°14'0 0.0
2015-May-19 22:33N 64°52' E 011°14'0 0.0
2015-May-19 21:33N 64°52' E 011°14'0 0.0
2015-May-19 20:33N 64°52' E 011°14'0 0.0
2015-May-19 19:33N 64°52' E 011°14'0 0.0
2015-May-19 18:33N 64°52' E 011°14'0 0.0
2015-May-19 17:33N 64°52' E 011°14'0 0.0
2015-May-19 16:33N 64°52' E 011°14'0 0.0
2015-May-19 15:33N 64°52' E 011°14'0 0.0
2015-May-19 14:33N 64°52' E 011°14'0 0.0
2015-May-19 13:33N 64°52' E 011°14'0 0.0
2015-May-19 12:33N 64°52' E 011°14'0 0.0
2015-May-19 11:33N 64°52' E 011°14'0 0.0
2015-May-19 10:33N 64°52' E 011°14'0 0.0
2015-May-19 09:33N 64°52' E 011°14'0 0.0
2015-May-19 08:33N 64°52' E 011°14'0 0.0
2015-May-19 07:33N 64°52' E 011°14'0 0.0
2015-May-19 06:33N 64°52' E 011°14'0 0.0
2015-May-19 05:33N 64°52' E 011°14'0 0.0
2015-May-19 04:33N 64°52' E 011°14'0 0.0
2015-May-19 03:33N 64°52' E 011°14'0 0.0
2015-May-19 02:33N 64°52' E 011°14'0 0.0
2015-May-19 01:33N 64°52' E 011°14'0 0.0
2015-May-19 00:33N 64°52' E 011°14'0 0.0
2015-May-18 23:33N 64°52' E 011°14'0 0.0
2015-May-18 22:33N 64°52' E 011°14'0 0.0
2015-May-18 21:33N 64°52' E 011°14'0 0.0
2015-May-18 20:33N 64°52' E 011°14'0 0.0
2015-May-18 19:33N 64°52' E 011°14'0 0.0
2015-May-18 18:33N 64°52' E 011°14'0 0.0
2015-May-18 17:33N 64°52' E 011°14'0 0.0
2015-May-18 16:33N 64°52' E 011°14'0 0.0
2015-May-18 15:33N 64°52' E 011°14'0 0.0
2015-May-18 14:33N 64°52' E 011°14'0 0.0
2015-May-18 13:33N 64°52' E 011°14'0 0.0
2015-May-18 12:33N 64°52' E 011°14'0 0.0
2015-May-18 11:33N 64°52' E 011°14'0 0.0
2015-May-18 10:33N 64°52' E 011°14'0 0.0
2015-May-18 09:33N 64°52' E 011°14'0 0.0
2015-May-18 08:33N 64°52' E 011°14'1 1.0
2015-May-18 07:33N 64°52' E 011°16'1 1.0
2015-May-18 06:33N 64°52' E 011°17'1111.1
2015-May-18 05:33N 64°60' E 011°37'1110.8
2015-May-18 04:33N 65°09' E 011°50'1111.1
2015-May-18 03:33N 65°19' E 012°00'5410.7
2015-May-17 22:29N 66°11' E 012°39'910.2
2015-May-17 21:34N 66°18' E 012°22'9 8.7
2015-May-17 20:33N 66°26' E 012°23'7 7.4
2015-May-17 19:33N 66°30' E 012°07'1210.6
2015-May-17 18:27N 66°38' E 012°30'31 7.8
2015-May-17 14:32N 66°58' E 013°30'1111.4
2015-May-17 13:33N 67°04' E 013°53'7 6.5
2015-May-17 12:33N 67°09' E 014°02'1111.2
2015-May-17 11:33N 67°19' E 014°18'1111.0
2015-May-17 10:33N 67°29' E 014°28'1311.0
2015-May-17 09:22N 67°42' E 014°31'  

Dump ship's entire track history